Terminal Aerodrome Forecast
Issued by NWS Mt. Holly, NJ

Home | Current Version | Previous Version | Text Only | Print | Product List | Glossary On
Versions: 1 2 3 4 5 6 7 8 9 10 11 12 13 14 15 16 17 18 19
000
FTUS41 KPHI 261901 AAA
TAFTTN
TAF AMD
KTTN 261901Z 2619/2718 VRB03KT P6SM BKN008 OVC013
     FM262000 VRB03KT P6SM OVC013
     FM262100 VRB03KT P6SM BKN025
     FM271000 00000KT 3SM BR OVC003
     FM271400 15004KT P6SM BKN025
     FM271600 15003KT P6SM BKN035=

USA.gov is the U.S. government's official web portal to all federal, state and local government web resources and services.